Kansas City, Missouri
Traffic Map
Current Weather Conditions
Kansas City, Missouri
Clear
Clear
57°
Feels Like: 57°
Wind Chill: 57° Ceiling: Unl
Heat Index: 57° Visibility: 10mi
Dew Point: 30° Wind: 18mph
Humidity: 36% Direction: 190° (S)
Pressure: 29.96in Gusts: 39mph
Raw Report DataKMKC 161600Z 19016G34KT 10SM CLR 14/M01 A2996 RMK AO2 RAE1558 P0000 T01391011
Traffic Incident Summary
Active as of:
Severity:
Category:
InformationThere was an issue retrieving the traffic information for this location. Please try a different location or try again shortly.
Advertisements
At Last! Intellicast now available for iPhone and Android